Time;durP1;ratioP1;P1;durP2;ratioP2;P2;SDS_P1;SDS_P2;PMS_P1;PMS_P2;Temp;Humidity;BMP_temperature;BMP_pressure;BME280_temperature;BME280_humidity;BME280_pressure;Samples;Min_cycle;Max_cycle;Signal;HPM_P1;HPM_P2
2021/10/01 00:00:06;;;;;;;3.35;3.15;;;;;;;6.09;82.35;101972.50;6272739;22;20030;-74
2021/10/01 00:02:50;;;;;;;8.93;3.78;;;;;;;6.08;81.85;101970.81;6273109;22;20125;-74
2021/10/01 00:05:34;;;;;;;2.50;2.35;;;;;;;6.06;81.75;101968.19;6272066;22;20027;-75
2021/10/01 00:08:19;;;;;;;3.30;3.15;;;;;;;6.12;81.46;101975.09;6272463;22;20103;-73
2021/10/01 00:11:04;;;;;;;2.63;2.53;;;;;;;6.09;81.87;101963.00;6272228;22;20031;-75
2021/10/01 00:13:49;;;;;;;3.88;3.67;;;;;;;6.11;81.98;101968.22;6270946;22;20080;-74
2021/10/01 00:16:33;;;;;;;3.78;3.50;;;;;;;6.09;82.70;101972.50;6272059;22;20030;-74
2021/10/01 00:19:18;;;;;;;4.78;4.30;;;;;;;6.07;83.06;101969.06;6271975;22;20375;-74
2021/10/01 00:22:03;;;;;;;4.70;4.38;;;;;;;6.08;82.51;101971.69;6272287;22;20482;-74
2021/10/01 00:24:47;;;;;;;5.03;4.72;;;;;;;6.12;81.20;101968.19;6272005;22;20034;-74
2021/10/01 00:27:31;;;;;;;3.95;3.65;;;;;;;6.08;81.69;101958.72;6272012;22;20085;-75
2021/10/01 00:30:16;;;;;;;2.58;2.38;;;;;;;6.09;81.31;101968.19;6249283;22;20370;-74
2021/10/01 00:33:00;;;;;;;3.92;3.63;;;;;;;6.12;81.52;101970.78;6272377;22;20026;-74
2021/10/01 00:35:45;;;;;;;3.08;2.97;;;;;;;6.12;81.55;101973.38;6271886;22;20517;-75
2021/10/01 00:38:29;;;;;;;2.20;2.00;;;;;;;6.05;81.52;101966.47;6272101;22;20373;-76
2021/10/01 00:41:14;;;;;;;2.65;2.55;;;;;;;6.05;81.50;101976.00;6272143;22;20085;-75
2021/10/01 00:43:59;;;;;;;3.35;3.15;;;;;;;6.07;81.75;101977.72;6272277;22;20497;-74
2021/10/01 00:46:44;;;;;;;4.93;4.63;;;;;;;6.02;81.63;101976.84;6270682;22;20072;-75
2021/10/01 00:49:28;;;;;;;3.20;2.85;;;;;;;5.96;82.10;101965.63;6228389;22;20093;-75
2021/10/01 00:52:13;;;;;;;2.95;2.85;;;;;;;5.97;82.28;101973.41;6274161;22;20359;-75
2021/10/01 00:54:59;;;;;;;4.00;3.63;;;;;;;5.92;82.21;101969.13;6251255;22;20026;-75
2021/10/01 00:57:43;;;;;;;2.53;2.25;;;;;;;5.86;82.68;101975.16;6272286;22;20033;-75
2021/10/01 01:00:28;;;;;;;3.13;2.92;;;;;;;5.84;82.79;101976.00;6272473;22;20113;-74
2021/10/01 01:03:13;;;;;;;4.53;3.40;;;;;;;5.85;82.74;101969.94;6251300;22;20031;-74
2021/10/01 01:06:23;;;;;;;7.45;3.63;;;;;;;5.84;82.77;101970.81;6273825;22;20133;-74
2021/10/01 01:09:22;;;;;;;3.97;3.67;;;;;;;5.85;82.92;101967.34;6232162;22;20117;-75
2021/10/01 01:12:10;;;;;;;2.85;2.70;;;;;;;5.77;83.04;101982.91;6275554;22;20379;-74
2021/10/01 01:14:59;;;;;;;3.03;2.85;;;;;;;5.79;82.85;101979.44;6273703;22;20098;-75
2021/10/01 01:17:48;;;;;;;3.60;3.40;;;;;;;5.77;82.48;101957.88;6273509;22;20073;-75
2021/10/01 01:20:51;;;;;;;2.97;2.88;;;;;;;5.79;82.64;101965.66;6272148;22;20030;-74
2021/10/01 01:23:59;;;;;;;1.77;1.77;;;;;;;5.80;82.79;101969.94;6251010;22;20482;-73
2021/10/01 01:27:03;;;;;;;23.50;3.83;;;;;;;5.82;82.46;101969.97;6233466;22;20032;-74
2021/10/01 01:30:07;;;;;;;3.92;3.60;;;;;;;5.78;82.88;101971.69;6251230;22;20061;-75
2021/10/01 01:32:58;;;;;;;13.85;4.45;;;;;;;5.78;82.94;101971.69;6252356;22;20520;-74
2021/10/01 01:35:43;;;;;;;6.20;2.97;;;;;;;5.77;82.70;101975.13;6271942;22;20038;-75
2021/10/01 01:38:32;;;;;;;2.78;2.67;;;;;;;5.79;82.43;101963.06;6250620;22;20177;-76
2021/10/01 01:41:16;;;;;;;3.42;3.22;;;;;;;5.83;82.27;101967.34;6272418;22;20058;-74
2021/10/01 01:44:01;;;;;;;4.80;3.70;;;;;;;5.83;82.93;101974.25;6272603;22;20107;-74
2021/10/01 01:46:46;;;;;;;4.07;3.78;;;;;;;5.80;82.56;101959.59;6250501;22;20030;-75
2021/10/01 01:49:30;;;;;;;3.53;3.33;;;;;;;5.80;82.21;101959.59;6250479;22;20078;-76
2021/10/01 01:52:15;;;;;;;5.22;2.67;;;;;;;5.85;82.21;101972.53;6229635;22;20622;-75
2021/10/01 01:54:59;;;;;;;3.70;3.50;;;;;;;5.84;82.72;101963.03;6250817;22;20084;-75
2021/10/01 01:57:49;;;;;;;3.55;3.35;;;;;;;5.83;82.54;101964.75;6271928;22;20031;-75
2021/10/01 02:00:37;;;;;;;7.90;3.33;;;;;;;5.82;82.56;101959.59;6250805;22;20034;-75
2021/10/01 02:03:21;;;;;;;3.25;3.05;;;;;;;5.83;82.28;101964.75;6229315;22;20492;-74
2021/10/01 02:06:17;;;;;;;1.90;1.90;;;;;;;5.86;82.21;101966.53;6272037;22;20553;-75
2021/10/01 02:09:01;;;;;;;4.13;3.05;;;;;;;5.85;82.36;101957.88;6250683;22;20388;-74
2021/10/01 02:11:47;;;;;;;3.80;3.60;;;;;;;5.88;82.27;101968.25;6271596;22;20154;-75
2021/10/01 02:14:35;;;;;;;2.75;2.65;;;;;;;5.86;82.16;101963.94;6271905;22;20030;-76
2021/10/01 02:17:20;;;;;;;3.45;2.92;;;;;;;5.86;81.79;101958.75;6250698;22;20031;-75
2021/10/01 02:20:05;;;;;;;3.20;2.70;;;;;;;5.83;82.05;101967.34;6250440;22;20090;-75
2021/10/01 02:22:50;;;;;;;3.55;3.35;;;;;;;5.81;82.23;101961.31;6250372;22;20031;-73
2021/10/01 02:29:33;;;;;;;2.47;2.38;;;;;;;5.80;81.79;101964.75;6188121;23;20092;-73
2021/10/01 02:32:32;;;;;;;2.75;2.65;;;;;;;5.82;81.82;101973.41;6226196;22;20402;-73
2021/10/01 02:35:16;;;;;;;2.30;2.17;;;;;;;5.81;81.83;101971.69;6250371;22;20026;-74
2021/10/01 02:38:01;;;;;;;2.97;2.88;;;;;;;5.82;82.11;101970.81;6271792;22;20371;-75
2021/10/01 02:40:45;;;;;;;7.20;2.90;;;;;;;5.80;82.87;101975.13;6250035;22;20045;-75
2021/10/01 02:43:30;;;;;;;6.95;3.83;;;;;;;5.75;82.43;101974.28;6250223;22;20101;-75
2021/10/01 02:46:14;;;;;;;2.47;2.38;;;;;;;5.75;82.43;101974.28;6228637;22;20425;-75
2021/10/01 02:49:01;;;;;;;2.90;2.80;;;;;;;5.75;83.06;101971.69;6271754;22;20372;-74
2021/10/01 02:51:51;;;;;;;4.22;2.67;;;;;;;5.73;82.25;101969.09;6249873;22;20093;-75
2021/10/01 02:55:14;;;;;;;2.28;2.17;;;;;;;5.76;81.43;101976.00;6250123;22;20027;-77
2021/10/01 02:58:09;;;;;;;3.35;2.50;;;;;;;5.73;82.09;101974.28;6271741;22;20537;-75
2021/10/01 03:00:54;;;;;;;32.30;3.60;;;;;;;5.71;81.59;101972.56;6271269;22;20042;-76
2021/10/01 03:03:44;;;;;;;3.10;2.90;;;;;;;5.74;81.25;101976.00;6250617;22;20536;-77
2021/10/01 03:06:31;;;;;;;3.92;3.63;;;;;;;5.75;81.52;101971.69;6272395;22;20026;-76
2021/10/01 03:09:16;;;;;;;1.88;1.77;;;;;;;5.75;81.25;101972.56;6229782;22;20038;-75
2021/10/01 03:12:02;;;;;;;7.10;3.00;;;;;;;5.73;81.39;101973.41;6250402;22;20027;-75
2021/10/01 03:14:48;;;;;;;3.03;2.75;;;;;;;5.73;80.81;101978.59;6271736;22;20497;-76
2021/10/01 03:17:32;;;;;;;2.35;2.25;;;;;;;5.73;80.70;101973.41;6256583;22;20139;-77
2021/10/01 03:20:17;;;;;;;4.13;1.88;;;;;;;5.72;80.71;101969.97;6274340;22;20529;-74
2021/10/01 03:23:01;;;;;;;2.53;2.33;;;;;;;5.76;80.67;101978.59;6251955;22;20085;-75
2021/10/01 03:25:46;;;;;;;2.38;2.28;;;;;;;5.77;80.49;101975.13;6269711;22;20030;-75
2021/10/01 03:28:31;;;;;;;5.70;4.35;;;;;;;5.75;80.20;101977.75;6271965;22;20103;-74
2021/10/01 03:31:16;;;;;;;3.03;2.83;;;;;;;5.81;80.49;101970.81;6250192;22;20027;-73
2021/10/01 03:34:00;;;;;;;7.63;2.80;;;;;;;5.78;80.40;101982.06;6271412;22;20042;-74
2021/10/01 03:36:46;;;;;;;2.63;2.42;;;;;;;5.76;80.58;101983.75;6270816;22;20086;-74
2021/10/01 03:39:31;;;;;;;26.33;3.67;;;;;;;5.76;80.35;101984.63;6228738;22;20127;-76
2021/10/01 03:42:15;;;;;;;2.40;2.30;;;;;;;5.70;80.19;101978.59;6271407;22;20422;-74
2021/10/01 03:45:00;;;;;;;2.47;2.38;;;;;;;5.73;80.44;101983.78;6273163;22;20446;-74
2021/10/01 03:47:46;;;;;;;2.92;2.70;;;;;;;5.70;80.81;101978.59;6270304;22;20047;-74
2021/10/01 03:50:31;;;;;;;2.50;2.40;;;;;;;5.68;80.44;101985.53;6272047;22;20052;-74
2021/10/01 03:53:17;;;;;;;3.05;2.85;;;;;;;5.68;80.53;101975.16;6271053;22;20042;-76
2021/10/01 03:56:02;;;;;;;6.50;3.90;;;;;;;5.71;81.19;101982.91;6271117;22;20089;-75
2021/10/01 03:58:48;;;;;;;2.72;2.63;;;;;;;5.65;81.50;101985.53;6249284;22;20134;-75
2021/10/01 04:01:33;;;;;;;2.67;2.45;;;;;;;5.68;81.86;101986.38;6270290;22;20062;-75
2021/10/01 04:04:17;;;;;;;3.67;2.55;;;;;;;5.71;81.51;101988.09;6252842;22;20034;-79
2021/10/01 04:07:02;;;;;;;2.53;2.38;;;;;;;5.70;80.96;101984.66;6282827;22;20022;-82
2021/10/01 04:09:47;;;;;;;4.57;3.65;;;;;;;5.68;81.42;101982.94;6276074;22;20118;-79
2021/10/01 04:12:31;;;;;;;2.72;2.63;;;;;;;5.67;80.96;101978.59;6276188;22;20109;-79
2021/10/01 04:15:15;;;;;;;3.53;3.25;;;;;;;5.66;81.39;101979.50;6271116;22;20076;-77
2021/10/01 04:18:01;;;;;;;2.30;1.98;;;;;;;5.68;80.58;101972.56;6272414;22;20031;-80
2021/10/01 04:20:46;;;;;;;3.03;2.83;;;;;;;5.72;80.38;101969.09;6272510;22;20061;-78
2021/10/01 04:23:30;;;;;;;3.28;3.15;;;;;;;5.75;80.77;101972.56;6273625;22;20043;-75
2021/10/01 04:26:33;;;;;;;2.95;2.83;;;;;;;5.70;80.29;101973.41;6273514;22;20031;-78
2021/10/01 04:29:19;;;;;;;5.82;2.63;;;;;;;5.73;79.70;101979.47;6252155;22;20074;-75
2021/10/01 04:32:06;;;;;;;2.15;2.13;;;;;;;5.72;80.41;101971.69;6272987;22;20108;-75
2021/10/01 04:37:37;;;;;;;1.95;1.95;;;;;;;5.72;80.58;101976.88;6251135;22;20039;-76
2021/10/01 04:40:22;;;;;;;4.35;2.83;;;;;;;5.72;80.63;101976.88;6274496;22;20371;-75
2021/10/01 04:43:06;;;;;;;3.60;3.38;;;;;;;5.74;80.44;101976.00;6271811;22;20027;-75
2021/10/01 04:45:54;;;;;;;2.92;2.47;;;;;;;5.74;80.31;101975.13;6270684;22;20078;-76
2021/10/01 04:48:38;;;;;;;2.95;2.35;;;;;;;5.78;80.59;101971.69;6269958;22;20097;-76
2021/10/01 04:51:23;;;;;;;3.35;3.05;;;;;;;5.78;80.58;101966.50;6270485;22;20027;-74
2021/10/01 04:54:08;;;;;;;10.73;3.03;;;;;;;5.80;80.01;101977.72;6272044;22;20101;-76
2021/10/01 04:56:52;;;;;;;2.53;2.45;;;;;;;5.86;79.73;101979.50;6270031;22;20069;-75
2021/10/01 04:59:37;;;;;;;6.70;3.60;;;;;;;5.85;80.04;101983.78;6270970;22;20493;-76
2021/10/01 05:02:40;;;;;;;3.35;3.25;;;;;;;5.87;80.34;101983.78;6270579;22;20028;-76
2021/10/01 05:05:33;;;;;;;1.60;1.60;;;;;;;5.79;79.79;101979.44;6252821;22;20030;-75
2021/10/01 05:08:37;;;;;;;2.05;1.90;;;;;;;5.80;79.83;101990.69;6276363;22;20116;-77
2021/10/01 05:11:47;;;;;;;36.50;5.00;;;;;;;5.81;79.96;101982.06;6274569;22;20248;-75
2021/10/01 05:14:50;;;;;;;2.28;2.20;;;;;;;5.90;79.41;101994.16;6274182;22;20027;-75
2021/10/01 05:17:54;;;;;;;2.20;2.10;;;;;;;5.94;78.73;101991.56;6272423;22;20114;-74
2021/10/01 05:21:02;;;;;;;1.98;1.98;;;;;;;6.01;78.53;101995.88;6273460;22;20085;-76
2021/10/01 05:24:19;;;;;;;2.60;2.50;;;;;;;5.92;78.78;101985.53;6270198;22;20046;-75
2021/10/01 05:27:04;;;;;;;2.75;2.55;;;;;;;5.97;78.31;101991.56;6272374;22;20516;-75
2021/10/01 05:29:48;;;;;;;5.00;3.50;;;;;;;5.99;78.66;101987.22;6272402;22;20070;-74
2021/10/01 05:32:33;;;;;;;3.80;3.58;;;;;;;5.96;78.48;101984.66;6251013;22;20084;-75
2021/10/01 05:35:19;;;;;;;6.85;4.13;;;;;;;6.06;77.77;101995.84;6272112;22;20061;-75
2021/10/01 05:38:03;;;;;;;3.22;2.70;;;;;;;6.17;78.11;101994.97;6273564;22;20030;-75
2021/10/01 05:40:48;;;;;;;2.83;2.55;;;;;;;6.14;77.85;101991.53;6272156;22;20081;-75
2021/10/01 05:43:33;;;;;;;2.67;2.58;;;;;;;6.13;77.40;101982.03;6272529;22;20031;-76
2021/10/01 05:46:18;;;;;;;2.83;2.72;;;;;;;6.05;77.31;101984.63;6273752;22;20050;-75
2021/10/01 05:49:25;;;;;;;2.55;2.45;;;;;;;6.12;77.74;101988.94;6273802;22;20370;-75
2021/10/01 05:55:34;;;;;;;2.72;2.63;;;;;;;6.15;77.05;101985.50;6273547;22;20030;-75
2021/10/01 05:58:39;;;;;;;3.35;2.67;;;;;;;6.18;77.53;101988.91;6273556;22;20073;-75
2021/10/01 06:01:24;;;;;;;2.75;2.55;;;;;;;6.23;77.10;101987.19;6272557;22;20545;-76
2021/10/01 06:04:09;;;;;;;5.53;2.92;;;;;;;6.27;76.92;101990.63;6273924;22;20022;-76
2021/10/01 06:06:54;;;;;;;3.03;2.90;;;;;;;6.35;76.74;101990.63;6250338;22;20055;-77
2021/10/01 06:09:40;;;;;;;2.42;2.33;;;;;;;6.42;75.77;101981.91;6274032;22;20524;-77
2021/10/01 06:12:25;;;;;;;2.53;2.42;;;;;;;6.32;76.19;101988.00;6273388;22;20030;-77
2021/10/01 06:15:09;;;;;;;2.15;2.05;;;;;;;6.35;76.06;101994.06;6273635;22;20023;-77
2021/10/01 06:17:54;;;;;;;4.65;3.28;;;;;;;6.24;76.15;101988.06;6273113;22;20558;-75
2021/10/01 06:20:38;;;;;;;3.33;3.05;;;;;;;6.42;75.66;101995.75;6272394;22;20073;-79
2021/10/01 06:23:26;;;;;;;28.77;2.75;;;;;;;6.38;75.87;101996.63;6273615;22;20088;-78
2021/10/01 06:26:10;;;;;;;2.40;2.28;;;;;;;6.51;75.83;102000.06;6273547;22;20058;-77
2021/10/01 06:28:55;;;;;;;2.80;2.65;;;;;;;6.30;75.54;101985.44;6273248;22;20049;-77
2021/10/01 06:31:39;;;;;;;3.55;3.25;;;;;;;6.28;75.73;102000.16;6271960;22;20122;-77
2021/10/01 06:34:23;;;;;;;2.90;2.53;;;;;;;6.46;74.98;101999.22;6273630;22;20030;-77
2021/10/01 06:37:07;;;;;;;2.45;2.35;;;;;;;6.50;74.63;101999.22;6273955;22;20073;-77
2021/10/01 06:39:52;;;;;;;2.92;2.67;;;;;;;6.44;74.63;101993.19;6273102;22;20376;-78
2021/10/01 06:42:37;;;;;;;2.85;2.75;;;;;;;6.49;74.66;102005.25;6273325;22;20096;-77
2021/10/01 06:45:27;;;;;;;4.05;3.85;;;;;;;6.57;74.89;102007.84;6273414;22;20047;-76
2021/10/01 06:48:26;;;;;;;4.82;1.90;;;;;;;6.72;74.83;102007.75;6273803;22;20027;-77
2021/10/01 07:38:56;;;;;;;3.45;3.25;;;;;;;6.69;72.34;101997.38;6271467;22;20081;-76
2021/10/01 08:19:29;;;;;;;6.40;4.13;;;;;;;7.07;70.57;102005.84;6271903;22;20030;-79
2021/10/01 08:22:14;;;;;;;4.13;3.90;;;;;;;7.12;71.20;102005.81;6249423;22;20030;-80
2021/10/01 08:24:58;;;;;;;3.25;3.03;;;;;;;7.00;70.46;102006.72;6247792;22;20034;-79
2021/10/01 08:27:43;;;;;;;4.05;3.80;;;;;;;7.00;70.85;102004.13;6271053;22;20054;-76
2021/10/01 08:30:28;;;;;;;19.05;4.35;;;;;;;7.03;70.24;102008.47;6248862;22;20035;-77
2021/10/01 08:33:12;;;;;;;4.10;3.80;;;;;;;7.00;70.17;102004.13;6271348;22;20107;-76
2021/10/01 08:35:57;;;;;;;3.22;2.83;;;;;;;6.99;70.41;102002.44;6271342;22;20649;-78
2021/10/01 08:38:41;;;;;;;3.53;3.33;;;;;;;7.01;70.47;102005.00;6271139;22;20062;-73
2021/10/01 08:41:26;;;;;;;5.65;5.15;;;;;;;6.97;71.11;102003.31;6227049;22;20026;-72
2021/10/01 08:44:11;;;;;;;9.63;4.32;;;;;;;6.94;70.72;102004.19;6271366;22;20490;-73
2021/10/01 08:46:56;;;;;;;4.97;4.60;;;;;;;6.98;70.57;101998.09;6247698;22;20070;-73
2021/10/01 08:49:40;;;;;;;4.60;4.30;;;;;;;6.96;69.49;102002.47;6271260;22;20573;-76
2021/10/01 08:52:25;;;;;;;12.55;4.40;;;;;;;7.09;69.29;102003.25;6227292;22;20031;-76
2021/10/01 08:55:10;;;;;;;3.58;3.33;;;;;;;7.12;69.22;102004.09;6270743;22;20528;-76
2021/10/01 08:57:54;;;;;;;14.27;4.40;;;;;;;7.12;68.60;102008.41;6246738;22;20026;-77
2021/10/01 09:00:39;;;;;;;5.55;5.22;;;;;;;7.27;68.36;102008.31;6271454;22;20149;-79
2021/10/01 09:03:24;;;;;;;3.90;3.70;;;;;;;7.26;69.28;101997.03;6271469;22;20026;-78
2021/10/01 09:06:08;;;;;;;3.60;3.40;;;;;;;7.34;68.27;102004.81;6205820;22;20111;-75
2021/10/01 09:08:58;;;;;;;3.35;2.75;;;;;;;7.33;68.19;102009.13;6270778;22;20022;-77
2021/10/01 09:11:46;;;;;;;2.80;2.70;;;;;;;7.27;68.95;102005.72;6249665;22;20031;-74
2021/10/01 09:14:30;;;;;;;3.33;3.17;;;;;;;7.18;69.29;102003.19;6230185;22;20030;-77
2021/10/01 09:17:19;;;;;;;3.72;3.28;;;;;;;7.29;69.04;102007.44;6207635;22;20026;-76
2021/10/01 09:20:06;;;;;;;5.00;3.70;;;;;;;7.30;68.64;102003.09;6249974;22;20382;-76
2021/10/01 09:22:50;;;;;;;3.20;3.05;;;;;;;7.22;68.45;102003.16;6271258;22;20042;-78
2021/10/01 09:25:35;;;;;;;6.10;4.40;;;;;;;7.18;68.15;102011.84;6272845;22;20110;-75
2021/10/01 09:28:19;;;;;;;3.42;3.25;;;;;;;7.29;67.58;102007.44;6250255;22;20053;-74
2021/10/01 09:31:04;;;;;;;4.47;4.20;;;;;;;7.43;67.27;102003.91;6272582;22;20041;-75
2021/10/01 09:33:48;;;;;;;5.95;5.35;;;;;;;7.48;66.91;102009.91;6270338;22;20505;-73
2021/10/01 09:36:33;;;;;;;3.20;3.10;;;;;;;7.53;66.54;102006.38;6271419;22;20070;-74
2021/10/01 09:39:28;;;;;;;6.43;5.93;;;;;;;7.48;67.52;102008.16;6271722;22;20035;-74
2021/10/01 09:42:13;;;;;;;18.90;5.05;;;;;;;7.47;67.11;102002.97;6270088;22;20031;-73
2021/10/01 09:45:01;;;;;;;3.10;2.88;;;;;;;7.73;66.12;102003.63;6271372;22;20030;-74
2021/10/01 09:47:49;;;;;;;3.78;3.55;;;;;;;7.47;66.77;101996.03;6274039;22;20050;-73
2021/10/01 09:50:37;;;;;;;3.83;3.53;;;;;;;7.62;67.00;101995.94;6273881;22;20027;-75
2021/10/01 09:53:22;;;;;;;6.38;4.47;;;;;;;7.44;66.59;101997.78;6271529;22;20034;-75
2021/10/01 09:56:23;;;;;;;4.07;3.85;;;;;;;7.42;66.44;102004.75;6288342;22;20038;-77
2021/10/01 09:59:13;;;;;;;4.10;2.95;;;;;;;7.50;67.03;102008.13;6273604;22;20220;-74
2021/10/01 10:02:00;;;;;;;4.03;3.53;;;;;;;7.60;66.25;102004.59;6271438;22;20043;-75
2021/10/01 10:04:54;;;;;;;4.25;4.05;;;;;;;7.70;65.88;102003.66;6271273;22;20080;-73
2021/10/01 10:07:39;;;;;;;9.32;5.15;;;;;;;7.59;66.49;102003.72;6272197;22;20490;-75
2021/10/01 10:10:24;;;;;;;3.85;3.55;;;;;;;7.94;65.08;102002.56;6273259;22;20046;-73
2021/10/01 10:13:08;;;;;;;3.13;3.03;;;;;;;7.91;65.26;101990.47;6270952;22;20074;-74
2021/10/01 10:16:23;;;;;;;4.95;4.55;;;;;;;7.68;66.14;101995.88;6272678;22;20080;-74
2021/10/01 10:19:10;;;;;;;4.20;3.88;;;;;;;7.54;66.85;101999.44;6271471;22;20156;-73
2021/10/01 10:21:55;;;;;;;6.82;3.55;;;;;;;7.42;67.20;101996.97;6271222;22;20053;-75
2021/10/01 10:24:40;;;;;;;7.20;5.85;;;;;;;7.40;67.02;101994.34;6272438;22;20030;-74
2021/10/01 10:27:25;;;;;;;8.35;4.70;;;;;;;7.45;66.80;101992.59;6272890;22;20485;-75
2021/10/01 10:30:11;;;;;;;17.08;5.47;;;;;;;7.53;66.87;101988.19;6258000;22;20434;-74
2021/10/01 10:32:55;;;;;;;5.18;4.85;;;;;;;7.52;67.12;102003.81;6279788;22;20749;-75
2021/10/01 10:35:40;;;;;;;3.97;3.78;;;;;;;7.49;67.81;101993.44;6273626;22;20438;-74
2021/10/01 10:38:32;;;;;;;5.10;4.63;;;;;;;7.46;67.96;102001.28;6271326;22;20035;-75
2021/10/01 10:41:24;;;;;;;4.43;4.10;;;;;;;7.44;67.69;101996.06;6272675;22;20549;-75
2021/10/01 10:44:10;;;;;;;5.97;4.85;;;;;;;7.28;67.12;101995.31;6267319;22;20031;-74
2021/10/01 10:46:54;;;;;;;6.65;4.53;;;;;;;7.33;67.91;101988.34;6247429;22;20103;-74
2021/10/01 10:49:39;;;;;;;6.60;4.82;;;;;;;7.41;68.21;101995.22;6273809;22;20074;-75
2021/10/01 10:52:23;;;;;;;5.45;5.05;;;;;;;7.45;67.44;101999.53;6270767;22;20029;-75
2021/10/01 10:55:12;;;;;;;3.38;3.17;;;;;;;7.36;67.36;101997.00;6270083;22;20034;-75
2021/10/01 10:57:57;;;;;;;1.90;1.83;;;;;;;7.32;67.50;102004.81;6270202;22;20068;-72
2021/10/01 11:00:42;;;;;;;4.53;3.28;;;;;;;7.29;67.25;101998.78;6270532;22;20137;-73
2021/10/01 11:03:33;;;;;;;3.25;3.05;;;;;;;7.33;67.79;101993.53;6272033;22;20533;-72
2021/10/01 11:06:18;;;;;;;5.68;5.28;;;;;;;7.47;67.10;101998.63;6250150;22;20088;-73
2021/10/01 11:09:12;;;;;;;4.00;3.63;;;;;;;7.39;66.86;101995.25;6248797;22;20058;-73
2021/10/01 11:11:59;;;;;;;3.90;3.13;;;;;;;7.46;66.85;101996.06;6271499;22;20025;-75
2021/10/01 11:14:43;;;;;;;3.60;3.40;;;;;;;7.43;66.84;101988.31;6270375;22;20030;-73
2021/10/01 11:17:27;;;;;;;3.65;3.40;;;;;;;7.49;67.34;101996.03;6248936;22;20097;-72
2021/10/01 11:20:36;;;;;;;4.60;4.32;;;;;;;7.54;67.23;101996.84;6249004;22;20118;-74
2021/10/01 11:23:20;;;;;;;7.85;6.30;;;;;;;7.36;67.19;101989.22;6271213;22;20074;-74
2021/10/01 11:26:05;;;;;;;4.78;3.22;;;;;;;7.31;67.65;101990.09;6271394;22;20031;-73
2021/10/01 11:28:50;;;;;;;4.18;3.78;;;;;;;7.43;67.37;101990.91;6271363;22;20026;-72
2021/10/01 11:31:36;;;;;;;7.68;7.03;;;;;;;7.22;68.50;101977.19;6249164;22;20122;-74
2021/10/01 11:34:39;;;;;;;5.97;5.22;;;;;;;7.30;69.06;101988.38;6271915;22;20027;-73
2021/10/01 11:37:23;;;;;;;5.53;4.85;;;;;;;7.39;68.52;101991.78;6271597;22;20114;-73
2021/10/01 11:40:20;;;;;;;5.45;5.05;;;;;;;7.19;68.27;101985.00;6269402;22;20497;-72
2021/10/01 11:43:04;;;;;;;5.65;5.13;;;;;;;7.24;68.20;101988.41;6271161;22;20026;-71
2021/10/01 11:45:48;;;;;;;10.80;4.93;;;;;;;7.27;68.66;101987.53;6271635;22;20046;-73
2021/10/01 11:48:34;;;;;;;6.05;4.35;;;;;;;7.09;69.90;101982.47;6248457;22;20058;-72
2021/10/01 11:51:18;;;;;;;28.30;5.85;;;;;;;7.14;69.71;101980.69;6271781;22;20031;-72
2021/10/01 11:54:07;;;;;;;7.05;6.43;;;;;;;7.14;68.78;101983.28;6271316;22;20068;-73
2021/10/01 11:56:57;;;;;;;5.65;5.35;;;;;;;7.11;69.02;101978.13;6267398;22;20026;-74
2021/10/01 11:59:53;;;;;;;8.88;6.78;;;;;;;7.16;68.58;101969.44;6271467;22;20030;-73
2021/10/01 12:02:43;;;;;;;6.22;4.93;;;;;;;7.25;69.06;101977.16;6249142;22;20081;-74
2021/10/01 12:05:33;;;;;;;6.05;5.47;;;;;;;7.14;68.05;101970.28;6272799;22;20245;-73
2021/10/01 12:08:22;;;;;;;5.35;4.90;;;;;;;7.21;68.50;101975.44;6269981;22;20581;-74
2021/10/01 12:11:07;;;;;;;4.38;4.07;;;;;;;7.22;68.02;101974.59;6270976;22;20025;-73
2021/10/01 12:13:52;;;;;;;12.55;5.60;;;;;;;7.24;68.09;101972.81;6270796;22;20129;-73
2021/10/01 12:16:39;;;;;;;4.78;4.38;;;;;;;7.24;67.52;101974.56;6271504;22;20030;-76
2021/10/01 12:19:24;;;;;;;7.53;5.97;;;;;;;7.13;67.92;101972.03;6271417;22;20097;-78
2021/10/01 12:22:14;;;;;;;6.57;5.75;;;;;;;7.14;68.64;101973.75;6248695;22;20043;-76
2021/10/01 12:24:58;;;;;;;5.65;5.20;;;;;;;7.07;67.96;101958.22;6270011;22;20640;-77
2021/10/01 12:27:44;;;;;;;5.75;4.95;;;;;;;7.30;68.40;101969.31;6272215;22;20486;-78
2021/10/01 12:30:29;;;;;;;4.20;3.97;;;;;;;7.37;67.81;101967.53;6271307;22;20031;-77
2021/10/01 12:33:13;;;;;;;6.18;5.68;;;;;;;7.15;68.93;101965.09;6270247;22;20030;-77
2021/10/01 12:35:58;;;;;;;5.55;5.05;;;;;;;7.13;69.21;101958.22;6271448;22;20074;-78
2021/10/01 12:38:43;;;;;;;22.52;5.18;;;;;;;7.07;68.84;101958.22;6248488;22;20076;-77
2021/10/01 12:41:28;;;;;;;6.60;5.72;;;;;;;7.09;68.44;101957.38;6249176;22;20031;-78
2021/10/01 12:44:15;;;;;;;4.65;4.28;;;;;;;7.04;68.85;101947.84;6249298;22;20125;-78
2021/10/01 12:47:10;;;;;;;5.68;4.90;;;;;;;7.15;68.71;101946.94;6272446;22;20030;-77
2021/10/01 12:50:18;;;;;;;5.50;5.00;;;;;;;7.10;68.99;101947.84;6272205;22;20034;-78
2021/10/01 12:53:03;;;;;;;4.55;4.13;;;;;;;7.07;68.80;101943.50;6268824;22;20026;-76
2021/10/01 12:55:48;;;;;;;6.60;6.00;;;;;;;6.96;69.66;101942.72;6273427;22;20030;-76
2021/10/01 12:58:40;;;;;;;5.28;4.88;;;;;;;7.02;69.45;101950.47;6272265;22;20030;-76
2021/10/01 13:01:24;;;;;;;5.85;5.47;;;;;;;7.02;70.26;101941.81;6274444;22;20026;-79
2021/10/01 13:04:09;;;;;;;5.45;4.95;;;;;;;7.00;69.81;101938.38;6273692;22;20081;-76
2021/10/01 13:06:53;;;;;;;6.00;5.50;;;;;;;6.88;69.64;101947.09;6272522;22;20146;-76
2021/10/01 13:09:38;;;;;;;10.00;5.82;;;;;;;6.95;69.75;101937.53;6272659;22;20034;-76
2021/10/01 13:12:39;;;;;;;5.20;4.75;;;;;;;7.03;69.48;101936.63;6274211;22;20027;-78
2021/10/01 13:15:24;;;;;;;6.10;5.45;;;;;;;6.97;69.74;101939.25;6272625;22;20080;-77
2021/10/01 13:18:19;;;;;;;5.28;4.93;;;;;;;6.97;69.93;101936.66;6271692;22;20030;-75
2021/10/01 13:21:14;;;;;;;6.57;4.35;;;;;;;6.86;70.50;101943.66;6229968;22;20035;-74
2021/10/01 13:24:05;;;;;;;4.57;4.28;;;;;;;6.81;70.21;101917.72;6231444;22;20106;-73
2021/10/01 13:26:50;;;;;;;5.50;5.00;;;;;;;6.91;70.42;101931.50;6230131;22;20034;-76
2021/10/01 13:29:36;;;;;;;4.05;3.75;;;;;;;6.76;70.85;101923.81;6272379;22;20097;-74
2021/10/01 13:32:22;;;;;;;5.63;5.30;;;;;;;6.72;70.48;101929.88;6209280;22;20026;-76
2021/10/01 13:35:07;;;;;;;7.95;6.60;;;;;;;6.85;70.12;101934.13;6229097;22;20031;-75
2021/10/01 13:37:51;;;;;;;5.53;5.13;;;;;;;6.82;70.51;101931.56;6250604;22;20072;-77
2021/10/01 13:40:37;;;;;;;5.07;4.45;;;;;;;6.74;70.21;101926.41;6230188;22;20027;-73
2021/10/01 13:43:22;;;;;;;4.35;4.13;;;;;;;6.79;70.20;101921.19;6229889;22;20367;-76
2021/10/01 13:46:07;;;;;;;4.25;4.00;;;;;;;6.68;70.24;101913.47;6250300;22;20109;-74
2021/10/01 13:48:53;;;;;;;6.93;6.32;;;;;;;6.63;70.83;101898.81;6250033;22;20103;-74
2021/10/01 13:51:39;;;;;;;4.60;4.30;;;;;;;6.82;70.70;101915.97;6207463;22;20058;-75
2021/10/01 13:54:24;;;;;;;6.72;6.25;;;;;;;6.70;70.39;101921.25;6272838;22;20027;-75
2021/10/01 13:57:08;;;;;;;4.45;4.15;;;;;;;6.57;70.78;101920.47;6271383;22;20077;-74
2021/10/01 13:59:52;;;;;;;5.55;5.07;;;;;;;6.68;70.69;101917.78;6271819;22;20070;-74
2021/10/01 14:02:38;;;;;;;9.30;5.63;;;;;;;6.64;70.69;101909.16;6272858;22;20089;-74
2021/10/01 14:05:24;;;;;;;5.63;5.22;;;;;;;6.61;71.43;101922.16;6208307;22;20031;-73
2021/10/01 14:08:17;;;;;;;6.15;4.40;;;;;;;6.68;70.82;101912.59;6258474;22;20129;-74
2021/10/01 14:11:02;;;;;;;3.63;3.47;;;;;;;6.63;71.44;101909.19;6239306;22;20084;-75
2021/10/01 14:13:48;;;;;;;22.25;5.43;;;;;;;6.60;71.48;101910.06;6217754;22;20033;-76
2021/10/01 14:16:32;;;;;;;5.65;5.25;;;;;;;6.54;71.49;101909.25;6270860;22;20152;-79
2021/10/01 14:19:17;;;;;;;5.32;4.90;;;;;;;6.52;71.78;101910.97;6269148;22;20509;-77
2021/10/01 14:22:02;;;;;;;7.20;6.05;;;;;;;6.47;71.81;101908.41;6269149;22;20371;-78
2021/10/01 14:25:00;;;;;;;4.20;3.90;;;;;;;6.51;72.20;101912.69;6270134;22;20542;-76
2021/10/01 14:27:44;;;;;;;4.88;4.68;;;;;;;6.49;71.98;101910.97;6247865;22;20030;-77
2021/10/01 14:30:30;;;;;;;3.75;3.55;;;;;;;6.48;72.23;101910.13;6272624;22;20031;-77
2021/10/01 14:33:15;;;;;;;4.28;3.35;;;;;;;6.45;71.25;101904.94;6271749;22;20069;-77
2021/10/01 14:35:59;;;;;;;3.70;3.47;;;;;;;6.43;71.68;101904.09;6250176;22;20520;-77
2021/10/01 14:38:44;;;;;;;5.00;4.57;;;;;;;6.43;71.51;101898.91;6270847;22;20077;-77
2021/10/01 14:41:28;;;;;;;3.30;3.13;;;;;;;6.42;71.49;101899.78;6274326;22;20030;-75
2021/10/01 14:44:14;;;;;;;2.78;2.58;;;;;;;6.44;71.38;101899.78;6273488;22;20030;-77